Varmdo — SMXZ — position and weather

sailwx.info

Track history (hours):
 
Tides and Currents Weather Stations Pressure Air Temp Water Temp Dewpoint Dewpoint Depression Visibility Wind Speed Wind Dir Waves Ship Positions

Varmdo

Last reported at 2014-Oct-25 23:32 UTC. Time now 2014-Oct-26 00:18 UTC.
Position N 59°20' E 018°05'.

Length 38 m; draft 2.5 m.

Type: Passenger vessel. MMSI: 265520390.

Date/timePositionNaut miles runAvg speedWind from/ knotsBaromVisibWave heightAir tempDewpointWater temp
2014-Oct-25 23:32N 59°20' E 018°05'0 0.0
2014-Oct-25 22:32N 59°20' E 018°05'0 0.0
2014-Oct-25 21:29N 59°20' E 018°05'0 0.0
2014-Oct-25 20:32N 59°20' E 018°05'0 0.0
2014-Oct-25 19:32N 59°20' E 018°05'6 5.7
2014-Oct-25 18:33N 59°21' E 018°15'0 0.1
2014-Oct-25 12:33N 59°21' E 018°14'5 4.6
2014-Oct-25 11:25N 59°20' E 018°04'0 0.0
2014-Oct-25 10:31N 59°20' E 018°04'0 0.0
2014-Oct-25 09:22N 59°20' E 018°04'8 9.3
2014-Oct-25 08:28N 59°23' E 018°20'3 0.2
2014-Oct-24 15:31N 59°21' E 018°14'5 4.6
2014-Oct-24 14:23N 59°20' E 018°04'0 0.0
2014-Oct-24 13:05N 59°20' E 018°04'5 9.6
2014-Oct-24 12:32N 59°21' E 018°15'4 0.7
2014-Oct-24 07:08N 59°23' E 018°20'711.4
2014-Oct-24 06:32N 59°19' E 018°09'0 0.5
2014-Oct-24 05:33N 59°19' E 018°10'6 0.5
2014-Oct-23 16:31N 59°23' E 018°20'8 8.6
2014-Oct-23 15:32N 59°20' E 018°05'0 0.2
2014-Oct-23 14:32N 59°20' E 018°05'0 0.0
2014-Oct-23 13:29N 59°20' E 018°05'0 0.0
2014-Oct-23 12:32N 59°20' E 018°05'0 0.0
2014-Oct-23 11:32N 59°20' E 018°05'0 0.0
2014-Oct-23 10:32N 59°20' E 018°05'0 0.0
2014-Oct-23 09:26N 59°20' E 018°05'0 0.0
2014-Oct-23 08:23N 59°20' E 018°05'0 0.0
2014-Oct-23 07:32N 59°20' E 018°05'0 0.0
2014-Oct-23 06:29N 59°20' E 018°05'2 2.7
2014-Oct-23 05:33N 59°19' E 018°09'7 0.5
2014-Oct-22 16:29N 59°23' E 018°20'9 9.3
2014-Oct-22 15:33N 59°19' E 018°05'0 0.2
2014-Oct-22 14:29N 59°20' E 018°05'0 0.0
2014-Oct-22 13:29N 59°20' E 018°05'0 0.0
2014-Oct-22 12:29N 59°20' E 018°05'0 0.0
2014-Oct-22 11:26N 59°20' E 018°05'0 0.0
2014-Oct-22 10:29N 59°20' E 018°05'0 0.0
2014-Oct-22 09:26N 59°20' E 018°05'0 0.0
2014-Oct-22 08:23N 59°20' E 018°05'0 0.0
2014-Oct-22 07:23N 59°20' E 018°05'0 0.0
2014-Oct-22 06:32N 59°20' E 018°05'2 2.5
2014-Oct-22 05:33N 59°19' E 018°09'7 0.5
2014-Oct-21 16:29N 59°23' E 018°20'9 9.0
2014-Oct-21 15:32N 59°20' E 018°05'0 0.2
2014-Oct-21 14:31N 59°20' E 018°05'0 0.0
2014-Oct-21 13:31N 59°20' E 018°05'0 0.0
2014-Oct-21 12:31N 59°20' E 018°05'0 0.0
2014-Oct-21 11:31N 59°20' E 018°05'0 0.0
2014-Oct-21 10:31N 59°20' E 018°05'0 0.0
2014-Oct-21 09:31N 59°20' E 018°05'0 0.0
2014-Oct-21 08:28N 59°20' E 018°05'0 0.0
2014-Oct-21 07:31N 59°20' E 018°05'0 0.0
2014-Oct-21 06:28N 59°20' E 018°05'3 2.8
2014-Oct-21 05:33N 59°19' E 018°09'7 0.5
2014-Oct-20 16:30N 59°23' E 018°20'9 9.4
2014-Oct-20 15:33N 59°19' E 018°05'0 0.3
2014-Oct-20 14:29N 59°20' E 018°05'0 0.0
2014-Oct-20 13:26N 59°20' E 018°05'0 0.0
2014-Oct-20 12:26N 59°20' E 018°05'0 0.0
2014-Oct-20 11:29N 59°20' E 018°05'0 0.0
2014-Oct-20 10:32N 59°20' E 018°05'0 0.0
2014-Oct-20 09:32N 59°20' E 018°05'0 0.0
2014-Oct-20 08:29N 59°20' E 018°05'0 0.0
2014-Oct-20 07:26N 59°20' E 018°05'0 0.0
2014-Oct-20 06:32N 59°20' E 018°05'3 2.7
2014-Oct-20 05:33N 59°19' E 018°10'4 0.4
2014-Oct-19 19:33N 59°22' E 018°16'6 6.2
2014-Oct-19 18:32N 59°20' E 018°04'4 3.6
2014-Oct-19 17:34N 59°20' E 018°11'2 0.3
2014-Oct-19 08:33N 59°22' E 018°15'6 4.9
2014-Oct-19 07:25N 59°20' E 018°05'0 0.0
2014-Oct-19 04:31N 59°20' E 018°05'0 0.0
2014-Oct-19 03:28N 59°20' E 018°05'0 0.0
2014-Oct-19 02:31N 59°20' E 018°05'0 0.0
2014-Oct-19 01:25N 59°20' E 018°05'0 0.0
2014-Oct-19 00:25N 59°20' E 018°05'0 0.0
2014-Oct-18 23:31N 59°20' E 018°05'0 0.0
2014-Oct-18 22:22N 59°20' E 018°05'0 0.0
2014-Oct-18 21:25N 59°20' E 018°05'0 0.0
2014-Oct-18 20:31N 59°20' E 018°05'0 0.0
2014-Oct-18 19:31N 59°20' E 018°05'6 5.8
2014-Oct-18 18:33N 59°22' E 018°15'1 0.1
2014-Oct-18 12:30N 59°21' E 018°15'5 5.4
2014-Oct-18 11:31N 59°20' E 018°04'0 0.0
2014-Oct-18 10:31N 59°20' E 018°04'0 0.0
2014-Oct-18 09:31N 59°20' E 018°04'7 7.6
2014-Oct-18 08:33N 59°22' E 018°18'2 0.1
2014-Oct-17 15:30N 59°21' E 018°15'5 4.6
2014-Oct-17 14:21N 59°20' E 018°05'0 0.0
2014-Oct-17 13:27N 59°20' E 018°05'5 5.8
2014-Oct-17 12:32N 59°21' E 018°15'3 0.6
2014-Oct-17 07:08N 59°23' E 018°20'711.7
2014-Oct-17 06:31N 59°19' E 018°08'1 1.1
2014-Oct-17 05:32N 59°19' E 018°10'6 0.5
2014-Oct-16 16:31N 59°23' E 018°20'9 9.3
2014-Oct-16 15:33N 59°19' E 018°05'0 0.4
2014-Oct-16 14:33N 59°20' E 018°05'0 0.0
2014-Oct-16 13:09N 59°20' E 018°05'0 0.0
2014-Oct-16 08:27N 59°20' E 018°05'  
Track history (hours):
 
Tides and Currents Weather Stations Pressure Air Temp Water Temp Dewpoint Dewpoint Depression Visibility Wind Speed Wind Dir Waves Ship Positions

Varmdo

Last reported at 2014-Oct-25 23:32 UTC. Time now 2014-Oct-26 00:18 UTC.
Position N 59°20' E 018°05'.

Length 38 m; draft 2.5 m.

Type: Passenger vessel. MMSI: 265520390.

Date/timePositionNaut miles runAvg speedWind from/ knotsBaromVisibWave heightAir tempDewpointWater temp
2014-Oct-25 23:32N 59°20' E 018°05'0 0.0
2014-Oct-25 22:32N 59°20' E 018°05'0 0.0
2014-Oct-25 21:29N 59°20' E 018°05'0 0.0
2014-Oct-25 20:32N 59°20' E 018°05'0 0.0
2014-Oct-25 19:32N 59°20' E 018°05'6 5.7
2014-Oct-25 18:33N 59°21' E 018°15'0 0.1
2014-Oct-25 12:33N 59°21' E 018°14'5 4.6
2014-Oct-25 11:25N 59°20' E 018°04'0 0.0
2014-Oct-25 10:31N 59°20' E 018°04'0 0.0
2014-Oct-25 09:22N 59°20' E 018°04'8 9.3
2014-Oct-25 08:28N 59°23' E 018°20'3 0.2
2014-Oct-24 15:31N 59°21' E 018°14'5 4.6
2014-Oct-24 14:23N 59°20' E 018°04'0 0.0
2014-Oct-24 13:05N 59°20' E 018°04'5 9.6
2014-Oct-24 12:32N 59°21' E 018°15'4 0.7
2014-Oct-24 07:08N 59°23' E 018°20'711.4
2014-Oct-24 06:32N 59°19' E 018°09'0 0.5
2014-Oct-24 05:33N 59°19' E 018°10'6 0.5
2014-Oct-23 16:31N 59°23' E 018°20'8 8.6
2014-Oct-23 15:32N 59°20' E 018°05'0 0.2
2014-Oct-23 14:32N 59°20' E 018°05'0 0.0
2014-Oct-23 13:29N 59°20' E 018°05'0 0.0
2014-Oct-23 12:32N 59°20' E 018°05'0 0.0
2014-Oct-23 11:32N 59°20' E 018°05'0 0.0
2014-Oct-23 10:32N 59°20' E 018°05'0 0.0
2014-Oct-23 09:26N 59°20' E 018°05'0 0.0
2014-Oct-23 08:23N 59°20' E 018°05'0 0.0
2014-Oct-23 07:32N 59°20' E 018°05'0 0.0
2014-Oct-23 06:29N 59°20' E 018°05'2 2.7
2014-Oct-23 05:33N 59°19' E 018°09'7 0.5
2014-Oct-22 16:29N 59°23' E 018°20'9 9.3
2014-Oct-22 15:33N 59°19' E 018°05'0 0.2
2014-Oct-22 14:29N 59°20' E 018°05'0 0.0
2014-Oct-22 13:29N 59°20' E 018°05'0 0.0
2014-Oct-22 12:29N 59°20' E 018°05'0 0.0
2014-Oct-22 11:26N 59°20' E 018°05'0 0.0
2014-Oct-22 10:29N 59°20' E 018°05'0 0.0
2014-Oct-22 09:26N 59°20' E 018°05'0 0.0
2014-Oct-22 08:23N 59°20' E 018°05'0 0.0
2014-Oct-22 07:23N 59°20' E 018°05'0 0.0
2014-Oct-22 06:32N 59°20' E 018°05'2 2.5
2014-Oct-22 05:33N 59°19' E 018°09'7 0.5
2014-Oct-21 16:29N 59°23' E 018°20'9 9.0
2014-Oct-21 15:32N 59°20' E 018°05'0 0.2
2014-Oct-21 14:31N 59°20' E 018°05'0 0.0
2014-Oct-21 13:31N 59°20' E 018°05'0 0.0
2014-Oct-21 12:31N 59°20' E 018°05'0 0.0
2014-Oct-21 11:31N 59°20' E 018°05'0 0.0
2014-Oct-21 10:31N 59°20' E 018°05'0 0.0
2014-Oct-21 09:31N 59°20' E 018°05'0 0.0
2014-Oct-21 08:28N 59°20' E 018°05'0 0.0
2014-Oct-21 07:31N 59°20' E 018°05'0 0.0
2014-Oct-21 06:28N 59°20' E 018°05'3 2.8
2014-Oct-21 05:33N 59°19' E 018°09'7 0.5
2014-Oct-20 16:30N 59°23' E 018°20'9 9.4
2014-Oct-20 15:33N 59°19' E 018°05'0 0.3
2014-Oct-20 14:29N 59°20' E 018°05'0 0.0
2014-Oct-20 13:26N 59°20' E 018°05'0 0.0
2014-Oct-20 12:26N 59°20' E 018°05'0 0.0
2014-Oct-20 11:29N 59°20' E 018°05'0 0.0
2014-Oct-20 10:32N 59°20' E 018°05'0 0.0
2014-Oct-20 09:32N 59°20' E 018°05'0 0.0
2014-Oct-20 08:29N 59°20' E 018°05'0 0.0
2014-Oct-20 07:26N 59°20' E 018°05'0 0.0
2014-Oct-20 06:32N 59°20' E 018°05'3 2.7
2014-Oct-20 05:33N 59°19' E 018°10'4 0.4
2014-Oct-19 19:33N 59°22' E 018°16'6 6.2
2014-Oct-19 18:32N 59°20' E 018°04'4 3.6
2014-Oct-19 17:34N 59°20' E 018°11'2 0.3
2014-Oct-19 08:33N 59°22' E 018°15'6 4.9
2014-Oct-19 07:25N 59°20' E 018°05'0 0.0
2014-Oct-19 04:31N 59°20' E 018°05'0 0.0
2014-Oct-19 03:28N 59°20' E 018°05'0 0.0
2014-Oct-19 02:31N 59°20' E 018°05'0 0.0
2014-Oct-19 01:25N 59°20' E 018°05'0 0.0
2014-Oct-19 00:25N 59°20' E 018°05'0 0.0
2014-Oct-18 23:31N 59°20' E 018°05'0 0.0
2014-Oct-18 22:22N 59°20' E 018°05'0 0.0
2014-Oct-18 21:25N 59°20' E 018°05'0 0.0
2014-Oct-18 20:31N 59°20' E 018°05'0 0.0
2014-Oct-18 19:31N 59°20' E 018°05'6 5.8
2014-Oct-18 18:33N 59°22' E 018°15'1 0.1
2014-Oct-18 12:30N 59°21' E 018°15'5 5.4
2014-Oct-18 11:31N 59°20' E 018°04'0 0.0
2014-Oct-18 10:31N 59°20' E 018°04'0 0.0
2014-Oct-18 09:31N 59°20' E 018°04'7 7.6
2014-Oct-18 08:33N 59°22' E 018°18'2 0.1
2014-Oct-17 15:30N 59°21' E 018°15'5 4.6
2014-Oct-17 14:21N 59°20' E 018°05'0 0.0
2014-Oct-17 13:27N 59°20' E 018°05'5 5.8
2014-Oct-17 12:32N 59°21' E 018°15'3 0.6
2014-Oct-17 07:08N 59°23' E 018°20'711.7
2014-Oct-17 06:31N 59°19' E 018°08'1 1.1
2014-Oct-17 05:32N 59°19' E 018°10'6 0.5
2014-Oct-16 16:31N 59°23' E 018°20'9 9.3
2014-Oct-16 15:33N 59°19' E 018°05'0 0.4
2014-Oct-16 14:33N 59°20' E 018°05'0 0.0
2014-Oct-16 13:09N 59°20' E 018°05'0 0.0
2014-Oct-16 08:27N 59°20' E 018°05'  

Dump ship's entire track history